Time;durP1;ratioP1;P1;durP2;ratioP2;P2;SDS_P1;SDS_P2;PMS_P1;PMS_P2;Temp;Humidity;BMP_temperature;BMP_pressure;BME280_temperature;BME280_humidity;BME280_pressure;Samples;Min_cycle;Max_cycle;Signal;HPM_P1;HPM_P2
2023/12/05 00:00:26;;;;;;;59.05;21.27;;;;;;;-3.53;100.00;97828.72;3161023;23;20029;-96
2023/12/05 00:02:05;;;;;;;65.20;21.73;;;;;;;-3.46;100.00;97821.19;3175275;23;20018;-95
2023/12/05 00:03:24;;;;;;;50.72;20.70;;;;;;;-3.61;100.00;97829.47;3157454;23;20112;-95
2023/12/05 00:04:45;;;;;;;53.22;21.30;;;;;;;-3.83;100.00;97828.19;3144626;23;20042;-96
2023/12/05 00:06:10;;;;;;;48.20;20.20;;;;;;;-3.73;100.00;97830.06;3157292;23;20029;-96
2023/12/05 00:07:47;;;;;;;51.60;19.63;;;;;;;-3.66;100.00;97830.22;3170324;23;20030;-96
2023/12/05 00:09:14;;;;;;;54.65;18.95;;;;;;;-3.89;100.00;97831.50;3169939;23;20018;-96
2023/12/05 00:10:52;;;;;;;57.80;22.30;;;;;;;-3.60;100.00;97823.50;3165723;23;20021;-96
2023/12/05 00:12:16;;;;;;;56.35;21.35;;;;;;;-3.57;100.00;97821.00;3156757;23;20018;-96
2023/12/05 00:14:22;;;;;;;46.30;20.75;;;;;;;-3.37;100.00;97817.91;3170139;23;20100;-96
2023/12/05 00:16:07;;;;;;;49.60;19.33;;;;;;;-3.48;100.00;97817.75;3172437;23;20092;-96
2023/12/05 00:17:28;;;;;;;50.92;20.25;;;;;;;-3.51;100.00;97809.13;3165752;23;20025;-96
2023/12/05 00:18:49;;;;;;;57.17;21.63;;;;;;;-3.42;100.00;97811.88;3175607;23;20042;-95
2023/12/05 00:20:14;;;;;;;51.95;22.40;;;;;;;-3.31;100.00;97807.81;3153932;23;20157;-94
2023/12/05 00:21:31;;;;;;;54.47;21.48;;;;;;;-3.27;100.00;97817.25;3158986;23;20037;-96
2023/12/05 00:23:27;;;;;;;59.00;23.20;;;;;;;-3.33;100.00;97806.94;3152218;23;20022;-96
2023/12/05 00:25:01;;;;;;;51.85;21.15;;;;;;;-3.31;100.00;97810.38;3175059;23;20026;-95
2023/12/05 00:26:32;;;;;;;54.13;21.52;;;;;;;-3.29;100.00;97797.56;3173873;23;20075;-95
2023/12/05 00:27:52;;;;;;;53.95;21.58;;;;;;;-3.32;100.00;97803.53;3153240;23;20018;-95
2023/12/05 00:29:38;;;;;;;48.53;21.67;;;;;;;-3.28;100.00;97795.06;3159879;23;20025;-96
2023/12/05 00:31:00;;;;;;;58.17;21.50;;;;;;;-3.24;100.00;97795.09;3156067;23;20006;-96
2023/12/05 00:32:18;;;;;;;58.15;22.23;;;;;;;-3.52;100.00;97795.50;3159812;23;20077;-95
2023/12/05 00:33:36;;;;;;;56.05;23.23;;;;;;;-3.47;100.00;97793.88;3166374;23;20018;-96
2023/12/05 00:34:58;;;;;;;56.70;21.55;;;;;;;-3.44;100.00;97788.78;3148631;23;20026;-96
2023/12/05 00:36:40;;;;;;;53.72;22.70;;;;;;;-3.55;100.00;97793.75;3161304;23;20032;-96
2023/12/05 00:38:00;;;;;;;50.17;20.73;;;;;;;-3.59;100.00;97789.41;3155761;23;20033;-95
2023/12/05 00:39:18;;;;;;;58.50;22.52;;;;;;;-3.56;100.00;97797.13;3143769;23;20121;-96
2023/12/05 00:40:37;;;;;;;56.35;22.25;;;;;;;-3.43;100.00;97799.91;3141447;23;20093;-95
2023/12/05 00:41:59;;;;;;;56.75;23.20;;;;;;;-3.35;100.00;97783.00;3157435;23;20029;-96
2023/12/05 00:43:18;;;;;;;53.78;21.67;;;;;;;-3.29;100.00;97785.66;3170255;23;20036;-96
2023/12/05 00:44:43;;;;;;;56.00;22.60;;;;;;;-3.34;100.00;97779.59;3173655;23;20050;-96
2023/12/05 00:46:06;;;;;;;52.53;22.10;;;;;;;-3.36;100.00;97786.38;3169463;23;20034;-96
2023/12/05 00:47:34;;;;;;;54.60;22.52;;;;;;;-3.47;100.00;97773.41;3150351;23;20020;-96
2023/12/05 00:48:57;;;;;;;57.15;20.77;;;;;;;-3.37;100.00;97778.69;3161374;23;20022;-96
2023/12/05 00:50:14;;;;;;;;;;;;;;;-3.41;100.00;97780.31;3166956;23;20077;-95
2023/12/05 00:51:30;;;;;;;46.78;18.63;;;;;;;-3.41;100.00;97780.31;3149287;23;19917;-95
2023/12/05 00:52:58;;;;;;;56.08;20.88;;;;;;;-3.48;100.00;97781.91;3156719;23;20033;-96
2023/12/05 00:54:17;;;;;;;53.58;21.02;;;;;;;-3.54;100.00;97786.94;3152003;23;20006;-95
2023/12/05 00:55:41;;;;;;;52.63;21.70;;;;;;;-3.65;100.00;97796.97;3147061;23;20030;-96
2023/12/05 00:57:12;;;;;;;52.60;19.90;;;;;;;-3.69;100.00;97785.84;3171721;23;20048;-95
2023/12/05 00:58:34;;;;;;;53.08;20.13;;;;;;;-3.45;100.00;97787.06;3147789;23;20029;-95
2023/12/05 00:59:56;;;;;;;;;;;;;;;-3.59;100.00;97791.97;3125358;23;20411;-96
2023/12/05 01:01:41;;;;;;;36.55;13.73;;;;;;;-3.74;100.00;97794.25;3169444;23;19924;-96
2023/12/05 01:03:20;;;;;;;37.25;15.43;;;;;;;-3.90;100.00;97795.66;3177205;23;20036;-95
2023/12/05 01:05:33;;;;;;;42.92;17.92;;;;;;;-3.71;100.00;97791.75;3177490;23;20013;-96
2023/12/05 01:06:53;;;;;;;43.08;17.70;;;;;;;-3.47;100.00;97787.91;3179501;23;20012;-95
2023/12/05 01:08:28;;;;;;;41.50;16.98;;;;;;;-3.74;100.00;97786.56;3162909;23;20018;-95
2023/12/05 01:09:59;;;;;;;;;;;;;;;-3.42;100.00;97781.16;3176777;23;20021;-96
2023/12/05 01:11:17;;;;;;;45.28;18.42;;;;;;;-3.33;100.00;97775.31;3171735;23;19904;-95
2023/12/05 01:13:22;;;;;;;51.00;21.10;;;;;;;-3.31;100.00;97777.09;3171201;23;20029;-94
2023/12/05 01:15:16;;;;;;;48.17;19.13;;;;;;;-3.42;100.00;97791.41;3170017;23;20013;-95
2023/12/05 01:16:36;;;;;;;38.55;15.88;;;;;;;-3.51;100.00;97788.66;3165464;23;20140;-96
2023/12/05 01:18:06;;;;;;;51.28;20.25;;;;;;;-3.31;100.00;97779.66;3163335;23;20021;-95
2023/12/05 01:20:13;;;;;;;46.22;19.35;;;;;;;-3.25;100.00;97784.00;3160124;23;20022;-95
2023/12/05 01:22:03;;;;;;;47.88;17.27;;;;;;;-3.32;100.00;97780.47;3197287;23;20007;-96
2023/12/05 01:23:47;;;;;;;43.50;17.80;;;;;;;-3.29;100.00;97777.97;3176073;23;20050;-96
2023/12/05 01:25:21;;;;;;;;;;;;;;;-3.27;100.00;97781.41;3181386;23;20010;-96
2023/12/05 01:27:00;;;;;;;43.08;16.35;;;;;;;-3.22;100.00;97778.06;3194877;23;19908;-96
2023/12/05 01:28:38;;;;;;;52.45;20.63;;;;;;;-3.19;100.00;97783.25;3187625;23;20018;-95
2023/12/05 01:30:17;;;;;;;47.13;19.42;;;;;;;-3.14;100.00;97773.94;3162827;23;20018;-95
2023/12/05 01:31:58;;;;;;;48.65;19.08;;;;;;;-3.17;100.00;97771.31;3194971;23;20001;-95
2023/12/05 01:33:33;;;;;;;52.78;20.02;;;;;;;-3.27;100.00;97771.16;3165086;23;20013;-95
2023/12/05 01:35:05;;;;;;;43.65;18.42;;;;;;;-3.26;100.00;97775.44;3132572;23;20034;-96
2023/12/05 01:36:23;;;;;;;52.38;21.88;;;;;;;-3.22;100.00;97767.81;3146427;23;20046;-96
2023/12/05 01:37:40;;;;;;;51.97;21.02;;;;;;;-3.30;100.00;97775.38;3148279;23;20002;-95
2023/12/05 01:39:00;;;;;;;52.55;20.60;;;;;;;-3.23;100.00;97776.34;3148058;23;20060;-96
2023/12/05 01:40:21;;;;;;;56.85;20.98;;;;;;;-3.23;100.00;97774.66;3179937;23;20049;-96
2023/12/05 01:41:37;;;;;;;47.83;20.50;;;;;;;-3.38;100.00;97782.94;3150026;23;20035;-96
2023/12/05 01:43:03;;;;;;;47.65;20.23;;;;;;;-3.22;100.00;97778.06;3155655;23;20033;-95
2023/12/05 01:44:25;;;;;;;51.45;21.15;;;;;;;-3.29;100.00;97785.66;3154754;23;20174;-95
2023/12/05 01:45:45;;;;;;;54.93;21.93;;;;;;;-3.34;100.00;97779.59;3131764;23;20026;-96
2023/12/05 01:47:28;;;;;;;46.30;19.45;;;;;;;-3.35;100.00;97775.31;3158988;23;20416;-96
2023/12/05 01:49:00;;;;;;;51.75;19.35;;;;;;;-3.61;100.00;97774.84;3177474;23;20010;-96
2023/12/05 01:50:34;;;;;;;55.78;20.92;;;;;;;-3.65;100.00;97771.38;3170898;23;20045;-96
2023/12/05 01:51:58;;;;;;;51.65;19.80;;;;;;;-3.55;100.00;97772.41;3171211;23;20038;-95
2023/12/05 01:53:18;;;;;;;56.60;21.73;;;;;;;-3.46;100.00;97766.59;3168575;23;20070;-96
2023/12/05 01:54:37;;;;;;;56.00;22.52;;;;;;;-3.38;100.00;97772.69;3165903;23;20057;-95
2023/12/05 01:56:03;;;;;;;48.28;21.13;;;;;;;-3.47;100.00;97775.13;3138270;23;20110;-96
2023/12/05 01:57:24;;;;;;;51.63;20.23;;;;;;;-3.44;100.00;97772.59;3157400;23;20026;-95
2023/12/05 01:58:42;;;;;;;45.92;19.58;;;;;;;-3.48;100.00;97771.69;3169042;23;20041;-96
2023/12/05 02:00:10;;;;;;;51.05;20.35;;;;;;;-3.39;100.00;97773.53;3185665;23;20021;-96
2023/12/05 02:01:42;;;;;;;48.00;19.77;;;;;;;-3.41;100.00;97770.97;3193591;23;20045;-96
2023/12/05 02:03:18;;;;;;;53.15;20.42;;;;;;;-3.58;100.00;97767.22;3163336;23;20013;-96
2023/12/05 02:04:52;;;;;;;49.63;20.50;;;;;;;-3.56;100.00;97768.16;3155494;23;20062;-96
2023/12/05 02:06:21;;;;;;;50.78;22.08;;;;;;;-3.49;100.00;97769.94;3156767;23;19998;-96
2023/12/05 02:07:56;;;;;;;56.30;21.20;;;;;;;-3.46;100.00;97775.13;3170448;23;20045;-96
2023/12/05 02:09:16;;;;;;;50.15;21.25;;;;;;;-3.38;100.00;97775.25;3185610;23;20043;-96
2023/12/05 02:10:59;;;;;;;50.13;21.10;;;;;;;-3.31;100.00;97768.53;3188664;23;20018;-96
2023/12/05 02:12:41;;;;;;;50.42;20.45;;;;;;;-3.31;100.00;97766.84;3172460;23;20017;-96
2023/12/05 02:14:22;;;;;;;46.45;20.50;;;;;;;-3.28;100.00;97763.50;3176685;23;20021;-96
2023/12/05 02:15:45;;;;;;;56.85;21.17;;;;;;;-3.30;100.00;97753.22;3140972;23;20027;-96
2023/12/05 02:17:55;;;;;;;50.35;20.73;;;;;;;-3.52;100.00;97749.44;3124469;23;20052;-96
2023/12/05 02:19:32;;;;;;;;;;;;;;;-3.48;100.00;97738.41;3175534;23;20026;-96
2023/12/05 02:21:16;;;;;;;46.58;18.80;;;;;;;-3.45;100.00;97740.16;3176027;23;19921;-96
2023/12/05 02:23:27;;;;;;;53.60;20.23;;;;;;;-3.32;100.00;97754.00;3177167;23;20028;-96
2023/12/05 02:25:07;;;;;;;49.25;19.30;;;;;;;-3.30;100.00;97754.88;3173867;23;20022;-96
2023/12/05 02:27:06;;;;;;;52.55;20.52;;;;;;;-3.30;100.00;97754.88;3173629;23;20021;-96
2023/12/05 02:28:26;;;;;;;42.17;18.50;;;;;;;-3.38;100.00;97747.09;3159961;23;20089;-96
2023/12/05 02:29:51;;;;;;;45.65;18.15;;;;;;;-3.24;100.00;97755.00;3159750;23;20021;-96
2023/12/05 02:31:17;;;;;;;47.58;19.23;;;;;;;-3.31;100.00;97751.50;3160073;23;20022;-96
2023/12/05 02:32:35;;;;;;;43.28;17.05;;;;;;;-3.58;100.00;97762.09;3146565;23;20022;-96
2023/12/05 02:34:00;;;;;;;50.10;18.52;;;;;;;-3.39;100.00;97765.00;3146450;23;20114;-95
2023/12/05 02:35:19;;;;;;;43.92;17.85;;;;;;;-3.57;100.00;97764.72;3147863;23;20019;-96
2023/12/05 02:37:18;;;;;;;55.88;20.08;;;;;;;-3.25;100.00;97758.41;3145185;23;20029;-96
2023/12/05 02:38:56;;;;;;;50.38;18.05;;;;;;;-3.15;100.00;97760.25;3142790;23;20014;-95
2023/12/05 02:40:51;;;;;;;46.40;18.33;;;;;;;-3.35;100.00;97759.97;3131395;23;20026;-96
2023/12/05 02:42:26;;;;;;;46.08;17.73;;;;;;;-3.29;100.00;97757.50;3177517;23;20082;-96
2023/12/05 02:44:18;;;;;;;37.67;17.05;;;;;;;-3.10;100.00;97755.22;3148140;23;20002;-96
2023/12/05 02:46:27;;;;;;;45.85;17.08;;;;;;;-3.07;100.00;97747.59;3171919;23;20018;-96
2023/12/05 02:48:02;;;;;;;40.97;16.55;;;;;;;-3.17;100.00;97754.25;3175722;23;20029;-96
2023/12/05 02:49:34;;;;;;;45.40;18.80;;;;;;;-3.11;100.00;97750.94;3171109;23;20037;-96
2023/12/05 02:51:11;;;;;;;41.88;17.40;;;;;;;-3.01;100.00;97757.91;3160177;23;20022;-96
2023/12/05 02:52:44;;;;;;;43.38;17.75;;;;;;;-3.15;100.00;97754.28;3157478;23;20110;-96
2023/12/05 02:54:33;;;;;;;48.40;19.65;;;;;;;-3.11;100.00;97748.38;3173500;23;20018;-96
2023/12/05 02:56:16;;;;;;;47.60;19.20;;;;;;;-3.06;100.00;97749.31;3178964;23;20018;-96
2023/12/05 02:57:47;;;;;;;46.35;18.88;;;;;;;-2.99;100.00;97743.44;3175701;23;20018;-96
2023/12/05 02:59:24;;;;;;;57.92;21.48;;;;;;;-2.96;100.00;97744.31;3165239;23;20021;-96
2023/12/05 03:01:17;;;;;;;60.65;22.67;;;;;;;-2.95;100.00;97744.34;3159893;23;20229;-95
2023/12/05 03:02:39;;;;;;;57.63;21.60;;;;;;;-2.85;100.00;97742.78;3170239;23;20081;-95
2023/12/05 03:04:17;;;;;;;53.75;22.52;;;;;;;-2.86;100.00;97735.94;3151619;23;20049;-95
2023/12/05 03:05:41;;;;;;;58.50;20.85;;;;;;;-3.05;100.00;97737.34;3156064;23;20018;-96
2023/12/05 03:07:04;;;;;;;60.17;22.50;;;;;;;-2.96;100.00;97729.81;3151977;23;20025;-95
2023/12/05 03:08:21;;;;;;;56.58;23.58;;;;;;;-3.01;100.00;97742.56;3142489;23;20034;-96
2023/12/05 03:09:39;;;;;;;57.63;23.55;;;;;;;-2.96;100.00;97749.44;3140493;23;20089;-96
2023/12/05 03:10:56;;;;;;;56.55;23.73;;;;;;;-3.19;100.00;97743.13;3153824;23;20070;-96
2023/12/05 03:12:34;;;;;;;55.60;22.73;;;;;;;-3.35;100.00;97731.81;3137872;23;20019;-95
2023/12/05 03:14:12;;;;;;;58.80;21.35;;;;;;;-3.13;100.00;97724.44;3133083;23;20054;-95
2023/12/05 03:15:51;;;;;;;54.38;19.95;;;;;;;-3.06;100.00;97746.75;3157468;23;20033;-96
2023/12/05 03:17:57;;;;;;;45.90;17.83;;;;;;;-2.99;100.00;97742.59;3146587;23;20026;-96
2023/12/05 03:19:18;;;;;;;52.40;21.23;;;;;;;-2.99;100.00;97743.44;3147296;23;20026;-96
2023/12/05 03:20:57;;;;;;;47.72;19.60;;;;;;;-2.85;100.00;97742.78;3153036;23;20046;-95
2023/12/05 03:22:37;;;;;;;52.58;20.85;;;;;;;-3.05;100.00;97742.47;3152231;23;20017;-96
2023/12/05 03:24:43;;;;;;;58.83;22.70;;;;;;;-2.88;100.00;97735.91;3147163;23;20019;-96
2023/12/05 03:26:46;;;;;;;60.28;23.00;;;;;;;-2.92;100.00;97738.41;3138539;23;20051;-96
2023/12/05 03:28:19;;;;;;;55.40;21.60;;;;;;;-3.03;100.00;97746.78;3150950;23;20023;-96
2023/12/05 03:29:52;;;;;;;59.42;23.20;;;;;;;-2.99;100.00;97737.47;3115248;23;20023;-96
2023/12/05 03:31:40;;;;;;;51.88;21.63;;;;;;;-3.06;100.00;97740.75;3149897;23;20018;-96
2023/12/05 03:33:16;;;;;;;55.65;22.17;;;;;;;-2.99;100.00;97740.03;3140731;23;20026;-96
2023/12/05 03:34:50;;;;;;;51.80;21.88;;;;;;;-3.03;100.00;97735.69;3152521;23;20460;-96
2023/12/05 03:36:47;;;;;;;50.90;21.15;;;;;;;-3.10;100.00;97737.28;3145571;23;20015;-96
2023/12/05 03:38:40;;;;;;;49.40;20.10;;;;;;;-3.29;100.00;97746.38;3142089;23;20021;-96
2023/12/05 03:40:21;;;;;;;51.28;20.38;;;;;;;-3.13;100.00;97753.47;3147665;23;20058;-95
2023/12/05 03:42:40;;;;;;;47.45;19.23;;;;;;;-2.99;100.00;97761.34;3162982;23;20006;-96
2023/12/05 03:44:29;;;;;;;42.90;18.10;;;;;;;-2.90;100.00;97757.22;3149928;23;20022;-95
2023/12/05 03:46:07;;;;;;;45.70;16.55;;;;;;;-3.01;100.00;97752.78;3149475;23;20055;-96
2023/12/05 03:47:29;;;;;;;;;;;;;;;-2.92;100.00;97758.91;3156844;23;20030;-96
2023/12/05 03:48:51;;;;;;;37.42;16.30;;;;;;;-2.85;100.00;97766.69;3159255;23;19917;-96
2023/12/05 03:50:24;;;;;;;36.78;15.68;;;;;;;-2.88;100.00;97758.09;3138125;23;20034;-95
2023/12/05 03:51:58;;;;;;;39.83;16.90;;;;;;;-2.84;100.00;97760.75;3167227;23;20026;-96
2023/12/05 03:53:21;;;;;;;36.85;16.20;;;;;;;-2.84;100.00;97754.75;3163034;23;20022;-96
2023/12/05 03:55:22;;;;;;;44.00;17.60;;;;;;;-2.85;100.00;97755.59;3158807;23;20006;-96
2023/12/05 03:58:00;;;;;;;53.13;21.20;;;;;;;-2.77;100.00;97756.56;3064363;24;20040;-96
2023/12/05 04:00:09;;;;;;;47.60;18.90;;;;;;;-2.91;100.00;97758.06;3007360;24;20031;-96
2023/12/05 04:02:03;;;;;;;49.92;20.15;;;;;;;-2.83;100.00;97756.47;3018134;24;20033;-95
2023/12/05 04:03:39;;;;;;;52.78;22.15;;;;;;;-2.80;100.00;97751.38;3031904;24;20029;-96
2023/12/05 04:05:50;;;;;;;57.90;21.92;;;;;;;-2.80;100.00;97747.97;3060442;24;20328;-96
2023/12/05 04:07:34;;;;;;;49.53;19.73;;;;;;;-2.71;100.00;97743.81;3053971;24;20048;-96
2023/12/05 04:09:04;;;;;;;45.50;18.92;;;;;;;-3.06;100.00;97744.19;3061179;24;20029;-96
2023/12/05 04:10:53;;;;;;;42.22;16.92;;;;;;;-2.94;100.00;97742.63;3040733;24;20086;-96
2023/12/05 04:12:41;;;;;;;40.05;16.15;;;;;;;-2.82;100.00;97749.66;3045855;24;20470;-96
2023/12/05 04:14:29;;;;;;;35.15;14.88;;;;;;;-2.76;100.00;97750.59;3047195;24;20024;-96
2023/12/05 04:16:05;;;;;;;34.75;14.25;;;;;;;-2.68;100.00;97739.56;3057646;24;20073;-96
2023/12/05 04:18:08;;;;;;;30.90;12.85;;;;;;;-2.65;100.00;97734.50;3044636;24;20036;-96
2023/12/05 04:19:40;;;;;;;34.95;14.45;;;;;;;-2.67;100.00;97731.91;3023450;24;20026;-96
2023/12/05 04:21:26;;;;;;;35.03;13.95;;;;;;;-2.74;100.00;97728.41;3043107;24;20141;-96
2023/12/05 04:23:18;;;;;;;31.95;14.40;;;;;;;-2.82;100.00;97732.56;3046214;24;20059;-96
2023/12/05 04:28:41;;;;;;;25.95;9.80;;;;;;;-2.80;100.00;97737.72;3008843;24;20035;-96
2023/12/05 04:31:00;;;;;;;25.52;9.68;;;;;;;-2.95;100.00;97743.47;2981761;24;20016;-96
2023/12/05 04:34:45;;;;;;;23.65;10.45;;;;;;;-3.07;100.00;97744.16;2988983;24;20018;-96
2023/12/05 04:36:57;;;;;;;31.48;13.85;;;;;;;-2.78;100.00;97744.59;2979282;25;20012;-96
2023/12/05 04:38:43;;;;;;;34.83;12.55;;;;;;;-2.63;100.00;97743.94;2993514;24;20031;-96
2023/12/05 04:40:59;;;;;;;33.33;13.43;;;;;;;-2.60;100.00;97743.97;2985564;24;20038;-96
2023/12/05 04:42:50;;;;;;;27.67;13.00;;;;;;;-2.57;100.00;97754.28;2976493;25;20026;-96
2023/12/05 04:45:19;;;;;;;32.92;12.85;;;;;;;-2.47;100.00;97749.25;3007162;24;20037;-96
2023/12/05 04:47:05;;;;;;;36.42;14.10;;;;;;;-2.51;100.00;97747.50;3009899;24;20354;-96
2023/12/05 04:49:14;;;;;;;40.38;15.65;;;;;;;-2.52;100.00;97749.19;2980396;24;20030;-96
2023/12/05 04:50:52;;;;;;;38.45;15.90;;;;;;;-2.42;100.00;97752.75;2999499;24;20031;-96
2023/12/05 04:52:58;;;;;;;42.15;15.50;;;;;;;-2.38;100.00;97757.06;2977721;24;20051;-96
2023/12/05 04:54:49;;;;;;;36.00;14.90;;;;;;;-2.34;100.00;97761.38;2978661;24;20036;-96
2023/12/05 04:56:15;;;;;;;42.58;17.08;;;;;;;-2.32;100.00;97753.72;2978154;25;20970;-96
2023/12/05 04:57:49;;;;;;;42.55;17.25;;;;;;;-2.34;100.00;97756.25;2987151;24;20023;-96
2023/12/05 04:59:13;;;;;;;40.00;16.35;;;;;;;-2.47;100.00;97756.94;2984485;24;20024;-96
2023/12/05 05:00:51;;;;;;;39.70;16.98;;;;;;;-2.77;100.00;97756.56;2993530;24;20024;-96
2023/12/05 05:02:40;;;;;;;37.65;16.75;;;;;;;-2.47;100.00;97752.69;3025855;24;20022;-96
2023/12/05 05:04:16;;;;;;;;;;;;;;;-2.48;100.00;97755.22;3012911;24;20202;-94
2023/12/05 05:06:00;;;;;;;39.35;14.88;;;;;;;-2.41;100.00;97752.75;3073298;24;19931;-96
2023/12/05 05:07:28;;;;;;;37.63;15.75;;;;;;;-2.52;100.00;97756.88;3120911;23;20010;-96
2023/12/05 05:08:49;;;;;;;44.85;17.58;;;;;;;-2.52;100.00;97754.31;3100238;24;20008;-96
2023/12/05 05:10:30;;;;;;;36.55;15.55;;;;;;;-2.43;100.00;97745.91;3095632;24;20024;-96
2023/12/05 05:12:26;;;;;;;32.13;14.15;;;;;;;-2.55;100.00;97756.84;3115665;23;20112;-96
2023/12/05 05:14:23;;;;;;;34.63;12.63;;;;;;;-2.44;100.00;97745.03;3117978;23;20470;-96
2023/12/05 05:15:49;;;;;;;31.30;13.68;;;;;;;-2.50;100.00;97755.22;3116841;23;20038;-96
2023/12/05 05:17:09;;;;;;;33.38;14.77;;;;;;;-2.44;100.00;97752.72;3107131;23;20028;-96
2023/12/05 05:18:26;;;;;;;32.10;13.45;;;;;;;-2.51;100.00;97753.50;3117048;23;20086;-96
2023/12/05 05:19:42;;;;;;;34.90;14.30;;;;;;;-2.47;100.00;97756.94;3096017;24;20028;-96
2023/12/05 05:21:00;;;;;;;29.35;13.05;;;;;;;-2.46;100.00;97750.97;3087207;24;20083;-96
2023/12/05 05:22:18;;;;;;;26.48;12.60;;;;;;;-2.57;100.00;97753.41;3094789;23;20452;-96
2023/12/05 05:23:46;;;;;;;27.10;12.98;;;;;;;-2.48;100.00;97750.97;3105684;23;20026;-96
2023/12/05 05:25:02;;;;;;;28.50;12.73;;;;;;;-2.51;100.00;97748.38;3131918;23;20051;-96
2023/12/05 05:26:20;;;;;;;30.83;13.63;;;;;;;-2.41;100.00;97757.03;3104498;23;20024;-96
2023/12/05 05:27:36;;;;;;;32.58;14.00;;;;;;;-2.33;100.00;97757.13;3110502;23;20023;-96
2023/12/05 05:28:54;;;;;;;26.67;12.63;;;;;;;-2.33;100.00;97750.28;3095684;24;20057;-96
2023/12/05 05:30:12;;;;;;;33.90;14.05;;;;;;;-2.32;100.00;97749.44;3094299;23;20027;-96
2023/12/05 05:31:29;;;;;;;30.42;13.93;;;;;;;-2.38;100.00;97753.63;3120868;23;20019;-96
2023/12/05 05:32:45;;;;;;;33.00;14.55;;;;;;;-2.49;100.00;97758.63;3095881;23;20521;-96
2023/12/05 05:34:03;;;;;;;32.72;14.35;;;;;;;-2.65;100.00;97752.44;3119934;23;20019;-96
2023/12/05 05:35:19;;;;;;;34.08;13.48;;;;;;;-2.57;100.00;97754.28;3119333;23;20039;-95
2023/12/05 05:36:35;;;;;;;28.67;12.90;;;;;;;-2.56;100.00;97750.88;3111521;23;20029;-95
2023/12/05 05:37:50;;;;;;;37.42;17.25;;;;;;;-2.71;100.00;97755.78;3089901;24;20020;-96
2023/12/05 05:39:09;;;;;;;27.83;13.18;;;;;;;-2.81;100.00;97749.66;3117914;23;20033;-96
2023/12/05 05:40:28;;;;;;;30.67;14.13;;;;;;;-2.57;100.00;97753.41;3116098;23;20056;-96
2023/12/05 05:41:58;;;;;;;35.63;15.52;;;;;;;-3.03;100.00;97751.03;3148727;23;20089;-96
2023/12/05 05:43:15;;;;;;;34.60;14.32;;;;;;;-3.02;100.00;97761.31;3139947;23;20066;-96
2023/12/05 05:44:32;;;;;;;32.47;14.73;;;;;;;-2.81;100.00;97761.63;3137659;23;20031;-96
2023/12/05 05:45:47;;;;;;;31.83;14.02;;;;;;;-2.62;100.00;97755.06;3140028;23;20026;-96
2023/12/05 05:47:07;;;;;;;32.50;14.30;;;;;;;-2.80;100.00;97758.22;3129701;23;20026;-95
2023/12/05 05:48:27;;;;;;;35.92;14.73;;;;;;;-2.53;100.00;97752.59;3139053;23;20022;-96
2023/12/05 05:49:43;;;;;;;37.47;15.05;;;;;;;-2.74;100.00;97761.72;3131347;23;20114;-93
2023/12/05 05:50:59;;;;;;;31.33;13.55;;;;;;;-2.68;100.00;97755.81;3131416;23;20026;-95
2023/12/05 05:52:14;;;;;;;30.95;13.02;;;;;;;-2.66;100.00;97758.38;3140060;23;20030;-96
2023/12/05 05:53:30;;;;;;;32.40;14.45;;;;;;;-2.77;100.00;97761.69;3139297;23;20014;-95
2023/12/05 05:54:49;;;;;;;32.42;14.77;;;;;;;-2.63;100.00;97758.47;3144692;23;20725;-96
2023/12/05 05:56:05;;;;;;;29.15;14.15;;;;;;;-2.57;100.00;97761.09;3140344;23;20049;-95
2023/12/05 05:57:21;;;;;;;32.38;14.88;;;;;;;-2.85;100.00;97756.47;3140186;23;20029;-96
2023/12/05 05:58:37;;;;;;;35.50;15.65;;;;;;;-2.64;100.00;97756.75;3140986;23;20355;-96
2023/12/05 05:59:53;;;;;;;32.53;14.55;;;;;;;-2.56;100.00;97763.69;3141156;23;20042;-96
2023/12/05 06:01:11;;;;;;;31.33;14.27;;;;;;;-2.80;100.00;97756.50;3156434;23;20029;-96
2023/12/05 06:02:27;;;;;;;29.85;12.40;;;;;;;-2.94;100.00;97756.31;3152275;23;20029;-95
2023/12/05 06:03:44;;;;;;;29.23;12.98;;;;;;;-2.92;100.00;97752.06;3144558;23;20022;-95
2023/12/05 06:04:59;;;;;;;26.13;12.40;;;;;;;-2.87;100.00;97754.69;3128093;23;20521;-96
2023/12/05 06:06:16;;;;;;;28.65;12.38;;;;;;;-2.96;100.00;97747.75;3141600;23;20014;-96
2023/12/05 06:07:32;;;;;;;24.02;10.90;;;;;;;-2.75;100.00;97752.31;3142017;23;20154;-96
2023/12/05 06:08:48;;;;;;;29.17;12.55;;;;;;;-2.88;100.00;97751.25;3140871;23;20026;-96
2023/12/05 06:10:04;;;;;;;26.55;12.00;;;;;;;-2.83;100.00;97751.34;3127105;23;20022;-95
2023/12/05 06:11:19;;;;;;;29.40;12.70;;;;;;;-2.70;100.00;97754.94;3131430;23;20045;-96
2023/12/05 06:12:35;;;;;;;28.00;11.95;;;;;;;-2.49;100.00;97756.94;3140925;23;20412;-95
2023/12/05 06:13:51;;;;;;;27.02;12.95;;;;;;;-2.77;100.00;97763.38;3140578;23;20086;-95
2023/12/05 06:15:08;;;;;;;26.95;12.05;;;;;;;-2.59;100.00;97760.22;3140724;23;20087;-96
2023/12/05 06:16:25;;;;;;;28.42;12.60;;;;;;;-2.52;100.00;97756.88;3139758;23;20033;-96
2023/12/05 06:17:41;;;;;;;26.38;12.63;;;;;;;-2.51;100.00;97760.31;3163124;23;20078;-93
2023/12/05 06:18:56;;;;;;;26.67;12.88;;;;;;;-2.42;100.00;97757.88;3149673;23;20399;-95
2023/12/05 06:20:12;;;;;;;30.95;12.60;;;;;;;-2.30;100.00;97757.16;3140318;23;20216;-93
2023/12/05 06:21:28;;;;;;;27.60;12.88;;;;;;;-2.53;100.00;97744.91;3139837;23;20041;-93
2023/12/05 06:22:44;;;;;;;26.20;12.35;;;;;;;-3.01;100.00;97747.69;3139937;23;20094;-94
2023/12/05 06:23:59;;;;;;;26.45;11.75;;;;;;;-2.94;100.00;97737.50;3155161;23;20021;-96
2023/12/05 06:25:15;;;;;;;30.17;12.88;;;;;;;-2.98;100.00;97740.03;3148890;23;20026;-95
2023/12/05 06:26:31;;;;;;;31.88;12.75;;;;;;;-2.79;100.00;97742.88;3149660;23;20034;-95
2023/12/05 06:27:47;;;;;;;28.52;12.13;;;;;;;-2.98;100.00;97736.63;3140659;23;20022;-96
2023/12/05 06:29:04;;;;;;;30.83;12.90;;;;;;;-3.16;100.00;97740.59;3149624;23;20019;-96
2023/12/05 06:30:20;;;;;;;24.65;11.23;;;;;;;-3.02;100.00;97739.97;3149731;23;20053;-95
2023/12/05 06:31:36;;;;;;;28.95;12.80;;;;;;;-2.96;100.00;97734.06;3140596;23;20022;-95
2023/12/05 06:32:52;;;;;;;29.75;12.10;;;;;;;-3.04;100.00;97732.28;3140759;23;20801;-96
2023/12/05 06:34:07;;;;;;;27.52;11.02;;;;;;;-3.05;100.00;97727.13;3141063;23;20117;-96
2023/12/05 06:35:23;;;;;;;25.95;10.90;;;;;;;-3.17;100.00;97726.09;3140271;23;20018;-96
2023/12/05 06:36:39;;;;;;;21.85;9.88;;;;;;;-3.26;100.00;97729.38;3142449;23;20015;-96
2023/12/05 06:37:54;;;;;;;30.25;11.93;;;;;;;-3.19;100.00;97727.75;3150712;23;20018;-93
2023/12/05 06:39:19;;;;;;;26.95;11.00;;;;;;;-3.27;100.00;97735.34;3148996;23;20022;-96
2023/12/05 06:40:35;;;;;;;29.70;11.77;;;;;;;-3.02;100.00;97734.84;3144291;23;20022;-95
2023/12/05 06:41:50;;;;;;;22.95;11.15;;;;;;;-2.97;100.00;97735.78;3142460;23;20018;-95
2023/12/05 06:43:09;;;;;;;25.13;11.18;;;;;;;-3.12;100.00;97727.03;3140072;23;20018;-92
2023/12/05 06:44:24;;;;;;;26.77;11.40;;;;;;;-2.87;100.00;97734.22;3146394;23;20776;-94
2023/12/05 06:45:40;;;;;;;26.77;11.93;;;;;;;-2.55;100.00;97731.22;3146838;23;20022;-92
2023/12/05 06:46:56;;;;;;;25.17;10.63;;;;;;;-2.47;100.00;97731.31;3154141;23;20025;-92
2023/12/05 06:48:12;;;;;;;28.15;12.15;;;;;;;-2.38;100.00;97725.44;3147816;23;20090;-93
2023/12/05 06:49:28;;;;;;;30.25;12.10;;;;;;;-2.29;100.00;97715.28;3139217;23;20046;-93
2023/12/05 06:50:46;;;;;;;37.83;14.20;;;;;;;-2.32;100.00;97726.34;3143948;23;20403;-93
2023/12/05 06:52:02;;;;;;;52.33;19.45;;;;;;;-2.24;100.00;97733.28;3141698;23;20034;-93
2023/12/05 06:53:18;;;;;;;128.02;45.88;;;;;;;-2.19;100.00;97726.50;3144053;23;20022;-93
2023/12/05 06:54:33;;;;;;;91.25;42.53;;;;;;;-2.31;100.00;97740.06;3143804;23;20029;-92
2023/12/05 06:55:49;;;;;;;46.88;21.30;;;;;;;-2.23;100.00;97733.31;3158723;23;20344;-92
2023/12/05 06:57:05;;;;;;;52.78;23.73;;;;;;;-2.14;100.00;97740.25;3153098;23;20450;-94
2023/12/05 06:58:22;;;;;;;36.38;16.35;;;;;;;-2.15;100.00;97743.66;3143922;23;20029;-93
2023/12/05 06:59:40;;;;;;;67.50;28.77;;;;;;;-2.06;100.00;97741.19;3144343;23;20021;-93
2023/12/05 07:00:58;;;;;;;64.13;30.40;;;;;;;-2.10;100.00;97738.56;3144333;23;20054;-94